Terminal Aerodrome Forecast
Issued by NWS Des Moines, IA

Home | Current Version | Previous Version | Text Only | Print | Product List | Glossary On
Versions: 1 2 3 4 5 6 7 8 9 10 11 12 13 14 15 16 17 18 19 20 21 22 23 24 25 26
000
FTUS43 KDMX 032342
TAFALO
TAF
KALO 032342Z 0400/0424 18010G20KT P6SM SCT060
     FM040300 14008KT 3SM TSRA SCT025 BKN035CB
     FM040800 32011KT 5SM -SHRA OVC030
     FM041100 35013KT P6SM VCSH OVC060
     FM041400 04008KT P6SM SCT030 BKN060
     FM042200 07009KT 5SM -TSRA BKN050CB=

USA.gov is the U.S. government's official web portal to all federal, state and local government web resources and services.